Time;durP1;ratioP1;P1;durP2;ratioP2;P2;SDS_P1;SDS_P2;PMS_P1;PMS_P2;Temp;Humidity;BMP_temperature;BMP_pressure;BME280_temperature;BME280_humidity;BME280_pressure;Samples;Min_cycle;Max_cycle;Signal;HPM_P1;HPM_P2
2023/04/28 00:02:02;;;;;;;15.40;9.60;;;;;;;;;;5114020;28;20631;-80
2023/04/28 00:04:29;;;;;;;13.90;9.23;;;;;;;;;;5114092;28;20226;-80
2023/04/28 00:06:56;;;;;;;15.57;10.00;;;;;;;;;;5114004;28;20690;-80
2023/04/28 00:09:23;;;;;;;17.77;9.83;;;;;;;;;;5113615;28;20292;-80
2023/04/28 00:11:51;;;;;;;14.53;9.47;;;;;;;;;;5114151;28;20205;-80
2023/04/28 00:14:19;;;;;;;15.67;10.17;;;;;;;;;;5113775;28;20296;-81
2023/04/28 00:16:46;;;;;;;20.33;11.23;;;;;;;;;;5113835;28;20552;-81
2023/04/28 00:19:14;;;;;;;16.67;10.93;;;;;;;;;;5114154;28;20217;-80
2023/04/28 00:21:41;;;;;;;18.20;10.30;;;;;;;;;;5114222;28;20276;-80
2023/04/28 00:24:08;;;;;;;16.03;10.60;;;;;;;;;;5113795;28;20190;-81
2023/04/28 00:26:35;;;;;;;17.30;10.97;;;;;;;;;;5113957;28;20213;-81
2023/04/28 00:29:02;;;;;;;16.53;11.17;;;;;;;;;;5113808;28;20336;-81
2023/04/28 00:31:31;;;;;;;17.90;11.23;;;;;;;;;;5113804;28;20281;-80
2023/04/28 00:33:58;;;;;;;16.10;11.23;;;;;;;;;;5113933;28;20715;-81
2023/04/28 00:36:25;;;;;;;16.90;10.70;;;;;;;;;;5112830;28;20292;-81
2023/04/28 00:38:52;;;;;;;16.23;10.87;;;;;;;;;;5113099;28;20293;-81
2023/04/28 00:41:20;;;;;;;16.50;10.53;;;;;;;;;;5113718;28;20274;-80
2023/04/28 00:43:47;;;;;;;14.83;10.60;;;;;;;;;;5113335;28;20308;-82
2023/04/28 00:46:21;;;;;;;15.20;10.37;;;;;;;;;;5113590;28;20236;-81
2023/04/28 00:48:49;;;;;;;17.27;10.83;;;;;;;;;;5113720;28;20780;-81
2023/04/28 00:51:17;;;;;;;15.50;10.53;;;;;;;;;;5113630;28;20190;-81
2023/04/28 00:53:44;;;;;;;16.87;9.97;;;;;;;;;;5112949;28;20198;-81
2023/04/28 00:56:12;;;;;;;16.73;9.77;;;;;;;;;;5113589;28;20189;-80
2023/04/28 00:58:39;;;;;;;15.33;10.20;;;;;;;;;;5113312;28;20202;-81
2023/04/28 01:01:07;;;;;;;19.67;10.90;;;;;;;;;;5113309;28;20596;-81
2023/04/28 01:03:36;;;;;;;17.23;10.40;;;;;;;;;;5113189;28;20281;-81
2023/04/28 01:06:05;;;;;;;14.90;10.07;;;;;;;;;;5113090;28;20595;-81
2023/04/28 01:08:33;;;;;;;15.43;9.80;;;;;;;;;;5112699;28;20237;-81
2023/04/28 01:11:00;;;;;;;15.00;10.13;;;;;;;;;;5113297;28;20733;-80
2023/04/28 01:13:28;;;;;;;17.03;10.27;;;;;;;;;;5112816;28;20250;-80
2023/04/28 01:15:55;;;;;;;14.57;9.40;;;;;;;;;;5112860;28;20288;-81
2023/04/28 01:18:23;;;;;;;17.17;10.37;;;;;;;;;;5112826;28;20225;-80
2023/04/28 01:20:50;;;;;;;16.83;10.30;;;;;;;;;;5113044;28;20228;-81
2023/04/28 01:23:19;;;;;;;16.27;10.10;;;;;;;;;;5112565;28;20280;-81
2023/04/28 01:25:47;;;;;;;15.33;10.13;;;;;;;;;;5112771;28;20872;-81
2023/04/28 01:28:15;;;;;;;16.77;10.00;;;;;;;;;;5112700;28;20217;-81
2023/04/28 01:30:42;;;;;;;16.10;10.00;;;;;;;;;;5112745;28;20197;-80
2023/04/28 01:33:09;;;;;;;14.50;9.77;;;;;;;;;;5112459;28;20662;-81
2023/04/28 01:35:36;;;;;;;17.03;10.20;;;;;;;;;;5112544;28;20202;-81
2023/04/28 01:38:03;;;;;;;14.43;10.33;;;;;;;;;;5112226;28;20232;-80
2023/04/28 01:40:30;;;;;;;14.97;9.73;;;;;;;;;;5112623;28;20197;-80
2023/04/28 01:42:59;;;;;;;14.93;10.43;;;;;;;;;;5112192;28;20333;-81
2023/04/28 01:45:26;;;;;;;13.27;10.03;;;;;;;;;;5112160;28;20674;-82
2023/04/28 01:47:53;;;;;;;14.83;9.83;;;;;;;;;;5111986;28;20312;-82
2023/04/28 01:50:20;;;;;;;15.27;10.20;;;;;;;;;;5112144;28;20680;-81
2023/04/28 01:52:48;;;;;;;16.73;9.77;;;;;;;;;;5111869;28;20222;-81
2023/04/28 01:55:15;;;;;;;14.73;10.17;;;;;;;;;;5112311;28;20232;-81
2023/04/28 01:57:42;;;;;;;16.30;10.20;;;;;;;;;;5112707;28;20233;-80
2023/04/28 02:00:11;;;;;;;14.67;10.00;;;;;;;;;;5112116;28;20292;-81
2023/04/28 02:02:38;;;;;;;16.10;10.33;;;;;;;;;;5112134;28;20194;-80
2023/04/28 02:05:06;;;;;;;15.13;10.40;;;;;;;;;;5112020;28;20197;-81
2023/04/28 02:07:33;;;;;;;16.13;10.33;;;;;;;;;;5111947;28;20694;-81
2023/04/28 02:10:00;;;;;;;14.87;10.10;;;;;;;;;;5112230;28;20627;-80
2023/04/28 02:12:27;;;;;;;15.10;10.00;;;;;;;;;;5112106;28;20233;-81
2023/04/28 02:14:54;;;;;;;13.77;9.53;;;;;;;;;;5112364;28;20300;-80
2023/04/28 02:17:23;;;;;;;16.73;10.43;;;;;;;;;;5112005;28;20273;-81
2023/04/28 02:19:55;;;;;;;18.83;10.83;;;;;;;;;;5111253;28;20292;-81
2023/04/28 02:22:22;;;;;;;14.83;10.83;;;;;;;;;;5111693;28;20204;-81
2023/04/28 02:24:49;;;;;;;17.53;11.10;;;;;;;;;;5109163;28;20305;-81
2023/04/28 02:27:16;;;;;;;20.57;11.27;;;;;;;;;;5102672;28;20293;-80
2023/04/28 02:29:43;;;;;;;18.70;11.73;;;;;;;;;;5091587;28;20313;-80
2023/04/28 02:32:11;;;;;;;17.73;10.37;;;;;;;;;;5091678;28;20281;-81
2023/04/28 02:34:39;;;;;;;22.97;11.23;;;;;;;;;;5091425;28;20725;-81
2023/04/28 02:37:06;;;;;;;17.47;11.73;;;;;;;;;;5091375;28;20241;-81
2023/04/28 02:39:34;;;;;;;18.87;11.80;;;;;;;;;;5091813;28;20202;-81
2023/04/28 02:42:04;;;;;;;19.40;11.53;;;;;;;;;;5091299;28;20413;-81
2023/04/28 02:44:31;;;;;;;19.00;11.43;;;;;;;;;;5091463;28;20202;-81
2023/04/28 02:46:59;;;;;;;17.70;11.93;;;;;;;;;;5091677;28;20202;-81
2023/04/28 02:49:26;;;;;;;20.17;12.17;;;;;;;;;;5090795;28;20225;-81
2023/04/28 02:51:55;;;;;;;21.53;12.63;;;;;;;;;;5091402;28;20281;-81
2023/04/28 02:54:27;;;;;;;17.77;11.63;;;;;;;;;;5091461;28;20268;-80
2023/04/28 02:56:54;;;;;;;22.50;12.67;;;;;;;;;;5091168;28;20276;-81
2023/04/28 02:59:22;;;;;;;21.87;12.77;;;;;;;;;;5092653;28;20612;-81
2023/04/28 03:01:50;;;;;;;22.57;12.37;;;;;;;;;;5095251;28;20278;-80
2023/04/28 03:04:17;;;;;;;19.00;12.17;;;;;;;;;;5094867;28;20195;-81
2023/04/28 03:06:45;;;;;;;22.37;12.60;;;;;;;;;;5094882;28;20273;-81
2023/04/28 03:09:14;;;;;;;22.67;12.13;;;;;;;;;;5095120;28;20254;-81
2023/04/28 03:11:41;;;;;;;19.90;12.57;;;;;;;;;;5095250;28;20263;-80
2023/04/28 03:14:08;;;;;;;23.13;13.07;;;;;;;;;;5105580;28;20202;-80
2023/04/28 03:16:36;;;;;;;22.40;12.67;;;;;;;;;;5115729;28;20292;-81
2023/04/28 03:19:03;;;;;;;21.90;12.00;;;;;;;;;;5114832;28;20239;-81
2023/04/28 03:21:31;;;;;;;24.17;12.73;;;;;;;;;;5114984;28;20750;-80
2023/04/28 03:23:58;;;;;;;24.20;12.43;;;;;;;;;;5115175;28;20260;-81
2023/04/28 03:26:27;;;;;;;22.87;12.70;;;;;;;;;;5114999;28;20288;-81
2023/04/28 03:28:55;;;;;;;25.27;13.00;;;;;;;;;;5115095;28;20308;-81
2023/04/28 03:31:23;;;;;;;23.07;12.87;;;;;;;;;;5115273;28;20198;-81
2023/04/28 03:33:50;;;;;;;22.40;12.60;;;;;;;;;;5114494;28;20696;-81
2023/04/28 03:36:17;;;;;;;22.50;12.63;;;;;;;;;;5115250;28;20189;-80
2023/04/28 03:38:44;;;;;;;20.13;12.50;;;;;;;;;;5114682;28;20856;-81
2023/04/28 03:41:12;;;;;;;23.57;13.20;;;;;;;;;;5115035;28;20288;-81
2023/04/28 03:43:40;;;;;;;20.30;12.33;;;;;;;;;;5114609;28;20268;-81
2023/04/28 03:46:07;;;;;;;19.67;12.20;;;;;;;;;;5114451;28;20281;-81
2023/04/28 03:48:35;;;;;;;21.90;11.93;;;;;;;;;;5114491;28;20312;-81
2023/04/28 03:51:02;;;;;;;16.97;11.33;;;;;;;;;;5114750;28;20266;-81
2023/04/28 03:53:29;;;;;;;22.43;11.57;;;;;;;;;;5114313;28;20229;-80
2023/04/28 03:55:56;;;;;;;20.37;11.77;;;;;;;;;;5114589;28;20250;-80
2023/04/28 03:58:24;;;;;;;19.93;11.20;;;;;;;;;;5114689;28;20320;-81
2023/04/28 04:00:53;;;;;;;19.40;11.77;;;;;;;;;;5114800;28;20289;-81
2023/04/28 04:03:24;;;;;;;21.43;11.83;;;;;;;;;;5114004;28;20616;-81
2023/04/28 04:05:52;;;;;;;18.70;11.07;;;;;;;;;;5114226;28;20194;-80
2023/04/28 04:08:19;;;;;;;17.90;11.10;;;;;;;;;;5114378;28;20198;-80
2023/04/28 04:10:47;;;;;;;18.47;11.07;;;;;;;;;;5112847;28;20205;-81
2023/04/28 04:13:14;;;;;;;17.50;10.40;;;;;;;;;;5114388;28;20217;-81
2023/04/28 04:15:41;;;;;;;13.47;9.37;;;;;;;;;;5113698;28;20322;-80
2023/04/28 04:18:10;;;;;;;15.67;9.00;;;;;;;;;;5113914;28;20205;-80
2023/04/28 04:20:37;;;;;;;14.60;9.67;;;;;;;;;;5113895;28;20697;-81
2023/04/28 04:23:04;;;;;;;16.53;9.13;;;;;;;;;;5113782;28;20749;-81
2023/04/28 04:25:31;;;;;;;12.17;8.90;;;;;;;;;;5113888;28;20280;-81
2023/04/28 04:27:59;;;;;;;12.60;8.73;;;;;;;;;;5114381;28;20288;-80
2023/04/28 04:30:26;;;;;;;13.03;8.30;;;;;;;;;;5113193;28;20776;-81
2023/04/28 04:32:53;;;;;;;12.63;8.50;;;;;;;;;;5113985;28;20278;-81
2023/04/28 04:35:22;;;;;;;12.10;8.40;;;;;;;;;;5114064;28;20197;-80
2023/04/28 04:37:49;;;;;;;13.00;8.60;;;;;;;;;;5113691;28;20293;-80
2023/04/28 04:40:17;;;;;;;13.27;8.57;;;;;;;;;;5113802;28;20208;-81
2023/04/28 04:42:44;;;;;;;14.20;9.13;;;;;;;;;;5113297;28;20673;-81
2023/04/28 04:45:11;;;;;;;13.73;8.90;;;;;;;;;;5113045;28;20218;-81
2023/04/28 04:47:38;;;;;;;15.10;9.73;;;;;;;;;;5113712;28;20296;-80
2023/04/28 04:50:06;;;;;;;18.57;9.50;;;;;;;;;;5113495;28;20325;-81
2023/04/28 04:52:34;;;;;;;15.47;9.27;;;;;;;;;;5113637;28;20219;-80
2023/04/28 04:55:02;;;;;;;15.10;9.07;;;;;;;;;;5113354;28;20204;-80
2023/04/28 04:57:29;;;;;;;16.97;10.27;;;;;;;;;;5113163;28;20255;-80
2023/04/28 04:59:56;;;;;;;13.57;8.63;;;;;;;;;;5112901;28;20284;-81
2023/04/28 05:02:23;;;;;;;14.50;9.18;;;;;;;;;;5113169;28;20615;-81
2023/04/28 05:04:50;;;;;;;13.77;9.03;;;;;;;;;;5113300;28;20628;-81
2023/04/28 05:07:17;;;;;;;14.67;9.10;;;;;;;;;;5112877;28;20214;-81
2023/04/28 05:09:46;;;;;;;14.10;9.07;;;;;;;;;;5113036;28;20301;-81
2023/04/28 05:12:13;;;;;;;15.00;8.47;;;;;;;;;;5113343;28;20288;-81
2023/04/28 05:14:40;;;;;;;13.40;8.17;;;;;;;;;;5112759;28;20236;-80
2023/04/28 05:17:07;;;;;;;15.70;8.55;;;;;;;;;;5112939;28;20280;-81
2023/04/28 05:19:35;;;;;;;15.40;8.77;;;;;;;;;;5112601;28;20281;-81
2023/04/28 05:22:02;;;;;;;12.97;8.23;;;;;;;;;;5112243;28;20197;-80
2023/04/28 05:24:29;;;;;;;12.43;8.20;;;;;;;;;;5113070;28;20630;-80
2023/04/28 05:26:59;;;;;;;11.23;7.97;;;;;;;;;;5113098;28;20226;-81
2023/04/28 05:29:26;;;;;;;13.93;7.97;;;;;;;;;;5112408;28;20249;-81
2023/04/28 05:31:53;;;;;;;12.47;7.87;;;;;;;;;;5112405;28;20235;-80
2023/04/28 05:34:20;;;;;;;14.10;7.50;;;;;;;;;;5112648;28;20217;-81
2023/04/28 05:36:47;;;;;;;13.17;8.00;;;;;;;;;;5112524;28;20217;-81
2023/04/28 05:39:15;;;;;;;11.10;7.67;;;;;;;;;;5112994;28;20280;-80
2023/04/28 05:41:42;;;;;;;9.90;6.65;;;;;;;;;;5112487;28;20221;-80
2023/04/28 05:44:11;;;;;;;11.33;7.50;;;;;;;;;;5112110;28;20689;-80
2023/04/28 05:46:38;;;;;;;12.65;7.25;;;;;;;;;;5112197;28;20198;-80
2023/04/28 05:49:05;;;;;;;10.52;7.15;;;;;;;;;;5112372;28;20325;-80
2023/04/28 05:51:32;;;;;;;9.20;6.40;;;;;;;;;;5112498;28;20194;-81
2023/04/28 05:54:00;;;;;;;9.80;6.40;;;;;;;;;;5112431;28;20193;-80
2023/04/28 05:56:27;;;;;;;8.43;6.82;;;;;;;;;;5112354;28;20284;-81
2023/04/28 05:58:54;;;;;;;9.35;6.40;;;;;;;;;;5111823;28;20638;-81
2023/04/28 06:01:24;;;;;;;9.85;6.97;;;;;;;;;;5112225;28;20193;-81
2023/04/28 06:03:52;;;;;;;8.33;6.73;;;;;;;;;;5112292;28;20618;-81
2023/04/28 06:06:20;;;;;;;9.05;6.35;;;;;;;;;;5112495;28;20201;-81
2023/04/28 06:08:47;;;;;;;8.50;6.32;;;;;;;;;;5111743;28;20201;-80
2023/04/28 06:11:14;;;;;;;8.70;5.95;;;;;;;;;;5112092;28;20289;-81
2023/04/28 06:13:42;;;;;;;8.57;5.60;;;;;;;;;;5111720;28;20198;-81
2023/04/28 06:16:09;;;;;;;8.07;5.50;;;;;;;;;;5112153;28;20217;-81
2023/04/28 06:18:37;;;;;;;6.22;5.25;;;;;;;;;;5112384;28;20194;-81
2023/04/28 06:21:04;;;;;;;7.28;5.00;;;;;;;;;;5112028;28;20279;-81
2023/04/28 06:23:32;;;;;;;5.47;4.45;;;;;;;;;;5111837;28;20284;-80
2023/04/28 06:25:59;;;;;;;7.20;4.80;;;;;;;;;;5111958;28;20225;-81
2023/04/28 06:28:26;;;;;;;5.45;4.63;;;;;;;;;;5111166;28;20547;-80
2023/04/28 06:30:53;;;;;;;4.90;4.20;;;;;;;;;;5112037;28;20312;-80
2023/04/28 06:33:20;;;;;;;5.25;4.40;;;;;;;;;;5111961;28;20285;-81
2023/04/28 06:35:49;;;;;;;4.80;3.80;;;;;;;;;;5115604;28;20229;-81
2023/04/28 06:38:16;;;;;;;4.72;3.53;;;;;;;;;;5116013;28;20197;-80
2023/04/28 06:40:44;;;;;;;7.97;3.97;;;;;;;;;;5115668;28;20296;-80
2023/04/28 06:43:11;;;;;;;4.60;4.10;;;;;;;;;;5115671;28;20229;-80
2023/04/28 06:45:38;;;;;;;6.50;4.22;;;;;;;;;;5115727;28;20201;-80
2023/04/28 06:48:07;;;;;;;5.47;3.95;;;;;;;;;;5115595;28;20635;-81
2023/04/28 06:50:34;;;;;;;3.92;3.50;;;;;;;;;;5115811;28;20247;-80
2023/04/28 06:53:02;;;;;;;5.47;3.60;;;;;;;;;;5115876;28;20225;-80
2023/04/28 06:55:29;;;;;;;4.35;3.53;;;;;;;;;;5115452;28;20221;-80
2023/04/28 06:57:57;;;;;;;3.90;3.00;;;;;;;;;;5115998;28;20229;-81
2023/04/28 07:00:24;;;;;;;5.28;3.70;;;;;;;;;;5115851;28;20276;-80
2023/04/28 07:02:51;;;;;;;4.28;3.28;;;;;;;;;;5115477;28;20734;-80
2023/04/28 07:05:18;;;;;;;3.95;3.00;;;;;;;;;;5115670;28;20605;-80
2023/04/28 07:07:46;;;;;;;5.20;2.85;;;;;;;;;;5115388;28;20221;-80
2023/04/28 07:10:15;;;;;;;3.58;2.92;;;;;;;;;;5115032;28;20261;-80
2023/04/28 07:12:42;;;;;;;2.92;2.40;;;;;;;;;;5115643;28;20247;-80
2023/04/28 07:15:09;;;;;;;4.30;2.80;;;;;;;;;;5115018;28;20289;-80
2023/04/28 07:17:36;;;;;;;4.93;2.83;;;;;;;;;;5115364;28;20213;-80
2023/04/28 07:20:04;;;;;;;5.13;2.95;;;;;;;;;;5115282;28;20284;-79
2023/04/28 07:22:31;;;;;;;6.28;3.30;;;;;;;;;;5115697;28;20330;-80
2023/04/28 07:24:58;;;;;;;5.53;2.95;;;;;;;;;;5114799;28;20284;-80
2023/04/28 07:27:27;;;;;;;5.45;3.10;;;;;;;;;;5115155;28;20281;-80
2023/04/28 07:29:54;;;;;;;4.60;2.85;;;;;;;;;;5115156;28;20328;-80
2023/04/28 07:32:21;;;;;;;5.07;3.10;;;;;;;;;;5115401;28;20198;-80
2023/04/28 07:34:48;;;;;;;4.65;3.40;;;;;;;;;;5114933;28;20298;-79
2023/04/28 07:37:15;;;;;;;5.10;3.35;;;;;;;;;;5114638;28;20281;-82
2023/04/28 07:39:43;;;;;;;4.10;3.47;;;;;;;;;;5114712;28;20273;-80
2023/04/28 07:42:10;;;;;;;4.25;3.80;;;;;;;;;;5115118;28;20315;-80
2023/04/28 07:44:39;;;;;;;6.93;3.78;;;;;;;;;;5114377;28;20666;-80
2023/04/28 07:47:06;;;;;;;5.10;3.83;;;;;;;;;;5114421;28;20221;-80
2023/04/28 07:49:34;;;;;;;4.90;4.03;;;;;;;;;;5114439;28;20328;-80
2023/04/28 07:52:01;;;;;;;5.53;4.57;;;;;;;;;;5114817;28;20277;-80
2023/04/28 07:54:28;;;;;;;5.78;5.20;;;;;;;;;;5113928;28;20673;-80
2023/04/28 07:56:57;;;;;;;5.03;4.38;;;;;;;;;;5115125;28;20228;-81
2023/04/28 07:59:25;;;;;;;4.75;3.70;;;;;;;;;;5114485;28;20197;-80
2023/04/28 08:01:53;;;;;;;4.00;3.58;;;;;;;;;;5114273;28;20198;-80
2023/04/28 08:04:20;;;;;;;4.10;3.70;;;;;;;;;;5114598;28;20575;-80
2023/04/28 08:06:48;;;;;;;3.47;2.90;;;;;;;;;;5114340;28;20197;-80
2023/04/28 08:09:15;;;;;;;2.55;2.35;;;;;;;;;;5113931;28;20217;-80
2023/04/28 08:11:42;;;;;;;3.25;1.83;;;;;;;;;;5114445;28;20743;-80
2023/04/28 08:14:09;;;;;;;1.80;1.70;;;;;;;;;;5114413;28;20198;-80
2023/04/28 08:16:39;;;;;;;3.53;1.95;;;;;;;;;;5114111;28;20201;-80
2023/04/28 08:19:07;;;;;;;4.13;1.70;;;;;;;;;;5114055;28;20281;-80
2023/04/28 08:21:35;;;;;;;1.73;1.05;;;;;;;;;;5114585;28;20221;-79
2023/04/28 08:24:02;;;;;;;1.92;1.30;;;;;;;;;;5113619;28;20284;-80
2023/04/28 08:26:30;;;;;;;1.40;1.10;;;;;;;;;;5114008;28;20208;-80
2023/04/28 08:28:57;;;;;;;1.75;1.13;;;;;;;;;;5114101;28;20280;-80
2023/04/28 08:31:24;;;;;;;1.58;1.40;;;;;;;;;;5113866;28;20268;-80
2023/04/28 08:33:51;;;;;;;1.20;1.10;;;;;;;;;;5113980;28;20282;-79
2023/04/28 08:36:20;;;;;;;1.90;1.20;;;;;;;;;;5113747;28;20241;-80
2023/04/28 08:38:47;;;;;;;1.17;1.08;;;;;;;;;;5113572;28;20202;-81
2023/04/28 08:41:15;;;;;;;1.40;1.02;;;;;;;;;;5113846;28;20224;-80
2023/04/28 08:43:43;;;;;;;1.52;1.10;;;;;;;;;;5113358;28;20231;-80
2023/04/28 08:46:11;;;;;;;1.73;1.05;;;;;;;;;;5113882;28;20288;-80
2023/04/28 08:48:40;;;;;;;1.63;1.17;;;;;;;;;;5113457;28;20684;-80
2023/04/28 08:51:08;;;;;;;1.67;1.10;;;;;;;;;;5113338;28;20225;-79
2023/04/28 08:53:38;;;;;;;1.50;1.40;;;;;;;;;;5113844;28;20293;-80
2023/04/28 08:56:06;;;;;;;3.28;1.50;;;;;;;;;;5113240;28;20198;-80
2023/04/28 08:58:35;;;;;;;1.40;1.30;;;;;;;;;;5112542;28;20201;-79
2023/04/28 09:01:03;;;;;;;1.80;1.02;;;;;;;;;;5113401;28;20289;-79
2023/04/28 09:03:31;;;;;;;1.23;1.13;;;;;;;;;;5113408;28;20189;-80
2023/04/28 09:05:58;;;;;;;1.40;1.00;;;;;;;;;;5113022;28;20205;-80
2023/04/28 09:08:25;;;;;;;5.22;1.40;;;;;;;;;;5113397;28;20293;-80
2023/04/28 09:11:08;;;;;;;1.52;1.15;;;;;;;;;;5112837;28;20351;-80
2023/04/28 09:13:35;;;;;;;1.20;1.10;;;;;;;;;;5113483;28;20293;-80
2023/04/28 09:16:02;;;;;;;1.65;1.10;;;;;;;;;;5112926;28;20225;-80
2023/04/28 09:18:31;;;;;;;2.08;1.42;;;;;;;;;;5112682;28;20643;-80
2023/04/28 09:21:06;;;;;;;4.18;1.60;;;;;;;;;;5112359;28;20190;-80
2023/04/28 09:23:33;;;;;;;5.70;1.70;;;;;;;;;;5112862;28;20228;-80
2023/04/28 09:26:02;;;;;;;4.13;1.58;;;;;;;;;;5112807;28;20296;-80
2023/04/28 09:28:30;;;;;;;2.15;1.35;;;;;;;;;;5112707;28;20257;-80
2023/04/28 09:30:57;;;;;;;1.63;1.48;;;;;;;;;;5113044;28;20225;-79
2023/04/28 09:33:25;;;;;;;2.22;1.60;;;;;;;;;;5112548;28;20292;-79
2023/04/28 09:35:52;;;;;;;2.10;1.63;;;;;;;;;;5112256;28;20260;-80
2023/04/28 09:38:20;;;;;;;1.80;1.65;;;;;;;;;;5112576;28;20710;-80
2023/04/28 09:40:51;;;;;;;2.22;1.27;;;;;;;;;;5112700;28;20288;-80
2023/04/28 09:43:28;;;;;;;1.25;1.15;;;;;;;;;;5112323;28;20340;-80
2023/04/28 09:45:57;;;;;;;1.85;1.20;;;;;;;;;;5112295;28;20215;-80
2023/04/28 09:48:28;;;;;;;2.55;1.10;;;;;;;;;;5112632;28;20249;-80
2023/04/28 09:50:55;;;;;;;1.63;1.25;;;;;;;;;;5112273;28;20290;-79
2023/04/28 09:53:24;;;;;;;1.85;1.25;;;;;;;;;;5112142;28;20243;-80
2023/04/28 09:55:53;;;;;;;2.33;1.40;;;;;;;;;;5112511;28;20224;-79
2023/04/28 09:58:20;;;;;;;1.20;1.10;;;;;;;;;;5112473;28;20277;-80
2023/04/28 10:00:50;;;;;;;2.45;1.20;;;;;;;;;;5112341;28;20228;-80
2023/04/28 10:03:20;;;;;;;1.30;1.00;;;;;;;;;;5112388;28;20193;-80
2023/04/28 10:05:48;;;;;;;1.05;0.95;;;;;;;;;;5111811;28;20285;-80
2023/04/28 10:08:15;;;;;;;5.68;1.05;;;;;;;;;;5112190;28;20190;-79
2023/04/28 10:10:43;;;;;;;1.80;0.90;;;;;;;;;;5112223;28;20316;-79
2023/04/28 10:13:10;;;;;;;2.33;1.00;;;;;;;;;;5112251;28;20289;-80
2023/04/28 10:15:38;;;;;;;1.23;1.13;;;;;;;;;;5112021;28;20193;-80
2023/04/28 10:18:06;;;;;;;1.83;1.10;;;;;;;;;;5112059;28;20212;-80
2023/04/28 10:20:35;;;;;;;2.53;1.20;;;;;;;;;;5111998;28;20227;-79
2023/04/28 10:23:09;;;;;;;2.05;1.20;;;;;;;;;;5112252;28;20194;-80
2023/04/28 10:25:37;;;;;;;2.08;1.30;;;;;;;;;;5112148;28;20301;-80
2023/04/28 10:28:06;;;;;;;2.58;1.27;;;;;;;;;;5111889;28;20190;-80
2023/04/28 10:30:34;;;;;;;2.28;1.20;;;;;;;;;;5111889;28;20304;-80
2023/04/28 10:33:19;;;;;;;3.47;1.35;;;;;;;;;;5111717;28;20817;-80
2023/04/28 10:35:48;;;;;;;2.72;1.35;;;;;;;;;;5112145;28;20288;-80
2023/04/28 10:38:16;;;;;;;3.10;1.50;;;;;;;;;;5111805;28;20277;-79
2023/04/28 10:40:44;;;;;;;2.88;1.58;;;;;;;;;;5111707;28;20288;-80
2023/04/28 10:43:11;;;;;;;3.80;1.50;;;;;;;;;;5111683;28;20233;-80
2023/04/28 10:46:00;;;;;;;2.55;1.40;;;;;;;;;;5112128;28;20267;-81
2023/04/28 10:48:51;;;;;;;2.40;1.70;;;;;;;;;;5111847;28;20644;-80
2023/04/28 10:51:24;;;;;;;2.20;1.52;;;;;;;;;;5091427;28;20317;-79
2023/04/28 10:54:26;;;;;;;2.53;1.70;;;;;;;;;;5111732;28;20197;-79
2023/04/28 10:57:12;;;;;;;1.80;1.48;;;;;;;;;;5111743;28;20209;-80
2023/04/28 10:59:40;;;;;;;3.45;1.70;;;;;;;;;;5111769;28;20267;-80
2023/04/28 11:02:30;;;;;;;2.47;1.55;;;;;;;;;;5111327;28;20237;-80
2023/04/28 11:05:17;;;;;;;2.15;1.42;;;;;;;;;;5111490;28;20284;-80
2023/04/28 11:08:03;;;;;;;3.88;1.30;;;;;;;;;;5111995;28;20282;-80
2023/04/28 11:10:45;;;;;;;2.40;1.35;;;;;;;;;;5111685;28;20210;-80
2023/04/28 11:13:32;;;;;;;1.65;1.17;;;;;;;;;;5110949;28;20644;-80
2023/04/28 11:16:03;;;;;;;2.17;1.20;;;;;;;;;;5111061;28;21033;-80
2023/04/28 11:18:30;;;;;;;3.60;1.40;;;;;;;;;;5111006;28;20234;-81
2023/04/28 11:20:58;;;;;;;4.10;1.38;;;;;;;;;;5113909;28;20289;-80
2023/04/28 11:23:28;;;;;;;2.95;1.20;;;;;;;;;;5115018;28;20282;-81
2023/04/28 11:25:56;;;;;;;1.33;1.23;;;;;;;;;;5115028;28;20201;-80
2023/04/28 11:28:23;;;;;;;2.33;1.20;;;;;;;;;;5115343;28;20194;-80
2023/04/28 11:30:52;;;;;;;2.03;1.30;;;;;;;;;;5114771;28;20222;-80
2023/04/28 11:33:19;;;;;;;1.60;1.10;;;;;;;;;;5115021;28;20296;-80
2023/04/28 11:35:47;;;;;;;2.42;1.00;;;;;;;;;;5114887;28;20579;-81
2023/04/28 11:38:14;;;;;;;0.93;0.80;;;;;;;;;;5115274;28;20274;-80
2023/04/28 11:40:56;;;;;;;2.65;1.10;;;;;;;;;;5115273;28;20254;-80
2023/04/28 11:43:29;;;;;;;1.48;1.02;;;;;;;;;;5114667;28;20257;-80
2023/04/28 11:45:57;;;;;;;1.10;0.88;;;;;;;;;;5114441;28;20225;-80
2023/04/28 11:48:24;;;;;;;2.25;1.05;;;;;;;;;;5114815;28;20197;-81
2023/04/28 11:50:52;;;;;;;1.83;1.17;;;;;;;;;;5114954;28;20292;-80
2023/04/28 11:53:22;;;;;;;2.22;1.00;;;;;;;;;;5114773;28;20572;-81
2023/04/28 11:55:51;;;;;;;1.52;1.10;;;;;;;;;;5114476;28;20208;-81
2023/04/28 11:58:21;;;;;;;3.47;1.40;;;;;;;;;;5114856;28;20194;-80
2023/04/28 12:01:03;;;;;;;1.38;1.17;;;;;;;;;;5113860;28;20194;-80
2023/04/28 12:03:31;;;;;;;1.58;1.10;;;;;;;;;;5114351;28;20802;-81
2023/04/28 12:05:58;;;;;;;2.45;1.02;;;;;;;;;;5114413;28;20190;-81
2023/04/28 12:08:28;;;;;;;2.83;1.10;;;;;;;;;;5115073;28;20225;-81
2023/04/28 12:11:09;;;;;;;1.15;0.90;;;;;;;;;;5114191;28;20292;-82
2023/04/28 12:13:37;;;;;;;1.13;1.00;;;;;;;;;;5114547;28;20200;-80
2023/04/28 12:16:05;;;;;;;2.00;0.98;;;;;;;;;;5114234;28;20280;-81
2023/04/28 12:18:34;;;;;;;1.58;0.95;;;;;;;;;;5114047;28;20197;-81
2023/04/28 12:21:01;;;;;;;2.70;1.00;;;;;;;;;;5113928;28;20824;-79
2023/04/28 12:23:32;;;;;;;1.13;0.98;;;;;;;;;;5114613;28;20225;-81
2023/04/28 12:25:59;;;;;;;2.25;1.17;;;;;;;;;;5114183;28;20194;-80
2023/04/28 12:28:38;;;;;;;1.88;0.85;;;;;;;;;;5113838;28;20289;-81
2023/04/28 12:31:07;;;;;;;2.17;1.00;;;;;;;;;;5113982;28;20229;-81
2023/04/28 12:33:37;;;;;;;1.55;0.88;;;;;;;;;;5112949;28;20233;-81
2023/04/28 12:36:05;;;;;;;1.75;0.90;;;;;;;;;;5114079;28;20220;-80
2023/04/28 12:38:33;;;;;;;1.63;0.98;;;;;;;;;;5113882;28;20200;-81
2023/04/28 12:41:00;;;;;;;2.67;0.93;;;;;;;;;;5113810;28;20285;-81
2023/04/28 12:43:28;;;;;;;1.05;0.80;;;;;;;;;;5112946;28;20249;-81
2023/04/28 12:45:55;;;;;;;4.72;1.10;;;;;;;;;;5113142;28;20190;-80
2023/04/28 12:48:23;;;;;;;1.67;0.90;;;;;;;;;;5113645;28;20246;-80
2023/04/28 12:50:52;;;;;;;1.58;1.05;;;;;;;;;;5113444;28;20265;-81
2023/04/28 12:53:19;;;;;;;2.47;0.90;;;;;;;;;;5113581;28;20280;-81
2023/04/28 12:55:46;;;;;;;3.10;1.55;;;;;;;;;;5113552;28;20289;-81
2023/04/28 12:58:14;;;;;;;5.30;4.18;;;;;;;;;;5113204;28;20194;-81
2023/04/28 13:00:41;;;;;;;3.03;1.80;;;;;;;;;;5113205;28;20674;-80
2023/04/28 13:03:08;;;;;;;2.25;1.30;;;;;;;;;;5113130;28;20706;-81
2023/04/28 13:05:36;;;;;;;1.30;1.05;;;;;;;;;;5113293;28;20204;-81
2023/04/28 13:08:04;;;;;;;2.13;1.00;;;;;;;;;;5113057;28;20689;-81
2023/04/28 13:10:32;;;;;;;2.90;0.90;;;;;;;;;;5113031;28;20292;-81
2023/04/28 13:12:59;;;;;;;1.52;1.10;;;;;;;;;;5113130;28;20197;-81
2023/04/28 13:15:26;;;;;;;2.03;1.02;;;;;;;;;;5112838;28;20610;-81
2023/04/28 13:17:53;;;;;;;2.78;1.25;;;;;;;;;;5112833;28;20624;-81
2023/04/28 13:20:20;;;;;;;1.45;1.25;;;;;;;;;;5113177;28;20569;-81
2023/04/28 13:22:47;;;;;;;1.65;1.00;;;;;;;;;;5112325;28;20221;-81
2023/04/28 13:25:16;;;;;;;1.48;1.00;;;;;;;;;;5112885;28;20281;-81
2023/04/28 13:27:43;;;;;;;1.60;1.10;;;;;;;;;;5112563;28;20204;-81
2023/04/28 13:30:11;;;;;;;1.63;1.20;;;;;;;;;;5112824;28;20292;-81
2023/04/28 13:32:38;;;;;;;2.35;0.90;;;;;;;;;;5112572;28;20293;-81
2023/04/28 13:35:07;;;;;;;1.15;1.05;;;;;;;;;;5112913;28;20658;-81
2023/04/28 13:37:37;;;;;;;1.30;0.80;;;;;;;;;;5112841;28;20193;-81
2023/04/28 13:40:05;;;;;;;3.95;1.20;;;;;;;;;;5112423;28;20904;-81
2023/04/28 13:42:33;;;;;;;1.17;0.70;;;;;;;;;;5112246;28;20279;-81
2023/04/28 13:45:01;;;;;;;3.72;2.90;;;;;;;;;;5112427;28;20197;-81
2023/04/28 13:47:31;;;;;;;1.85;1.65;;;;;;;;;;5112826;28;20292;-81
2023/04/28 13:49:59;;;;;;;3.92;1.00;;;;;;;;;;5112808;28;20198;-81
2023/04/28 13:52:26;;;;;;;1.63;0.80;;;;;;;;;;5112598;28;20204;-80
2023/04/28 13:54:53;;;;;;;1.10;0.90;;;;;;;;;;5112406;28;20199;-81
2023/04/28 13:57:20;;;;;;;2.03;1.00;;;;;;;;;;5112215;28;20284;-81
2023/04/28 13:59:49;;;;;;;1.98;1.00;;;;;;;;;;5112345;28;20221;-81
2023/04/28 14:02:17;;;;;;;1.95;1.15;;;;;;;;;;5112652;28;20321;-81
2023/04/28 14:04:47;;;;;;;2.75;0.82;;;;;;;;;;5112189;28;20197;-81
2023/04/28 14:07:14;;;;;;;3.22;0.95;;;;;;;;;;5112362;28;20189;-81
2023/04/28 14:09:41;;;;;;;1.45;1.02;;;;;;;;;;5112241;28;20190;-81
2023/04/28 14:12:09;;;;;;;2.13;1.13;;;;;;;;;;5111994;28;20202;-81
2023/04/28 14:14:37;;;;;;;1.60;0.90;;;;;;;;;;5112064;28;20684;-81
2023/04/28 14:17:06;;;;;;;1.92;1.00;;;;;;;;;;5112326;28;20193;-81
2023/04/28 14:19:33;;;;;;;1.50;0.80;;;;;;;;;;5112102;28;20623;-82
2023/04/28 14:22:01;;;;;;;1.80;0.80;;;;;;;;;;5112321;28;20257;-80
2023/04/28 14:24:28;;;;;;;2.15;0.75;;;;;;;;;;5111938;28;20546;-81
2023/04/28 14:26:55;;;;;;;1.38;0.90;;;;;;;;;;5111883;28;20232;-82
2023/04/28 14:29:22;;;;;;;1.20;1.05;;;;;;;;;;5112085;28;20196;-81
2023/04/28 14:31:49;;;;;;;1.50;1.15;;;;;;;;;;5112012;28;20355;-82
2023/04/28 14:34:18;;;;;;;2.42;1.20;;;;;;;;;;5111950;28;20280;-81
2023/04/28 14:36:46;;;;;;;1.85;1.20;;;;;;;;;;5111983;28;20721;-81
2023/04/28 14:39:13;;;;;;;2.08;1.30;;;;;;;;;;5111543;28;20239;-81
2023/04/28 14:41:41;;;;;;;1.45;1.30;;;;;;;;;;5111708;28;20296;-81